createdAt,value
2017-05-15T03:00:53.776Z,22.65
2017-05-15T03:01:19.342Z,22.74
2017-05-15T03:01:44.956Z,22.75
2017-05-15T03:02:10.514Z,22.72
2017-05-15T03:02:36.193Z,22.75
2017-05-15T03:03:01.790Z,22.71
2017-05-15T03:03:27.341Z,22.64
2017-05-15T03:03:52.887Z,22.69
2017-05-15T03:04:18.591Z,22.74
2017-05-15T03:04:44.141Z,22.74
2017-05-15T03:05:09.702Z,22.77
2017-05-15T03:05:35.289Z,22.75
2017-05-15T03:06:00.810Z,22.69
2017-05-15T03:06:26.404Z,22.72
2017-05-15T03:06:51.934Z,22.75
2017-05-15T03:07:17.492Z,22.74
2017-05-15T03:07:43.065Z,22.74
2017-05-15T03:08:08.622Z,22.75
2017-05-15T03:08:34.192Z,22.72
2017-05-15T03:08:59.760Z,22.74
2017-05-15T03:09:25.313Z,22.64
2017-05-15T03:09:50.870Z,22.78
2017-05-15T03:10:16.551Z,22.71
2017-05-15T03:10:42.112Z,22.75
2017-05-15T03:11:07.679Z,22.74
2017-05-15T03:11:33.302Z,22.69
2017-05-15T03:11:58.888Z,22.74
2017-05-15T03:12:24.434Z,22.74
2017-05-15T03:12:49.982Z,22.72
2017-05-15T03:13:15.519Z,22.74
2017-05-15T03:13:41.048Z,22.77
2017-05-15T03:14:06.649Z,22.72
2017-05-15T03:14:32.200Z,22.75
2017-05-15T03:14:57.745Z,22.75
2017-05-15T03:15:23.294Z,22.71
2017-05-15T03:15:48.902Z,22.69
2017-05-15T03:16:14.500Z,22.71
2017-05-15T03:16:40.044Z,22.72
2017-05-15T03:17:05.592Z,22.74
2017-05-15T03:17:31.151Z,22.68
2017-05-15T03:17:56.713Z,22.72
2017-05-15T03:18:22.383Z,22.69
2017-05-15T03:18:47.901Z,22.74
2017-05-15T03:19:13.439Z,22.75
2017-05-15T03:19:39.004Z,22.74
2017-05-15T03:20:04.633Z,22.68
2017-05-15T03:20:30.180Z,22.71
2017-05-15T03:20:55.714Z,22.62
2017-05-15T03:21:21.335Z,22.72
2017-05-15T03:21:46.894Z,22.68
2017-05-15T03:22:12.444Z,22.69
2017-05-15T03:22:37.999Z,22.72
2017-05-15T03:23:03.580Z,22.71
2017-05-15T03:23:29.116Z,22.69
2017-05-15T03:23:54.698Z,22.78
2017-05-15T03:24:20.269Z,22.74
2017-05-15T03:24:45.823Z,22.75
2017-05-15T03:25:11.477Z,22.67
2017-05-15T03:25:37.043Z,22.71
2017-05-15T03:26:02.632Z,22.65
2017-05-15T03:26:28.222Z,22.69
2017-05-15T03:26:53.744Z,22.64
2017-05-15T03:27:19.458Z,22.75
2017-05-15T03:27:45.020Z,22.68
2017-05-15T03:28:10.580Z,22.68
2017-05-15T03:28:36.134Z,22.74
2017-05-15T03:29:01.704Z,22.71
2017-05-15T03:29:27.262Z,22.65
2017-05-15T03:29:52.824Z,22.71
2017-05-15T03:30:18.405Z,22.71
2017-05-15T03:30:43.972Z,22.74
2017-05-15T03:31:09.530Z,22.71
2017-05-15T03:31:35.101Z,22.69
2017-05-15T03:32:00.671Z,22.69
2017-05-15T03:32:26.237Z,22.74
2017-05-15T03:32:51.807Z,22.69
2017-05-15T03:33:17.371Z,22.62
2017-05-15T03:33:42.967Z,22.67
2017-05-15T03:34:08.524Z,22.71
2017-05-15T03:34:34.105Z,22.69
2017-05-15T03:34:59.736Z,22.71
2017-05-15T03:35:25.294Z,22.71
2017-05-15T03:35:50.862Z,22.67
2017-05-15T03:36:16.424Z,22.74
2017-05-15T03:36:42.000Z,22.75
2017-05-15T03:37:07.565Z,22.64
2017-05-15T03:37:33.131Z,22.64
2017-05-15T03:37:58.682Z,22.75
2017-05-15T03:38:24.304Z,22.72
2017-05-15T03:38:49.869Z,22.69
2017-05-15T03:39:15.422Z,22.69
2017-05-15T03:39:40.994Z,22.69
2017-05-15T03:40:06.566Z,22.69
2017-05-15T03:40:32.124Z,22.71
2017-05-15T03:40:57.920Z,22.74
2017-05-15T03:41:23.504Z,22.69
2017-05-15T03:41:49.074Z,22.72
2017-05-15T03:42:14.638Z,22.75
2017-05-15T03:42:40.208Z,22.69
2017-05-15T03:43:05.800Z,22.69
2017-05-15T03:43:31.364Z,22.67
2017-05-15T03:43:56.930Z,22.67
2017-05-15T03:44:22.498Z,22.65
2017-05-15T03:44:48.073Z,22.64
2017-05-15T03:45:13.633Z,22.74
2017-05-15T03:45:39.193Z,22.67
2017-05-15T03:46:04.893Z,22.64
2017-05-15T03:46:30.528Z,22.64
2017-05-15T03:46:56.093Z,22.72
2017-05-15T03:47:21.664Z,22.65
2017-05-15T03:47:47.348Z,22.68
2017-05-15T03:48:12.900Z,22.71
2017-05-15T03:48:38.531Z,22.69
2017-05-15T03:49:04.091Z,22.67
2017-05-15T03:49:29.649Z,22.67
2017-05-15T03:49:55.207Z,22.74
2017-05-15T03:50:20.745Z,22.6
2017-05-15T03:50:46.365Z,22.68
2017-05-15T03:51:11.855Z,22.74
2017-05-15T03:51:37.462Z,22.68
2017-05-15T03:52:03.001Z,22.67
2017-05-15T03:52:28.561Z,22.69
2017-05-15T03:52:54.191Z,22.65
2017-05-15T03:53:19.861Z,22.71
2017-05-15T03:53:45.424Z,22.67
2017-05-15T03:54:10.982Z,22.75
2017-05-15T03:54:36.564Z,22.62
2017-05-15T03:55:02.163Z,22.65
2017-05-15T03:55:27.731Z,22.71
2017-05-15T03:55:53.315Z,22.54
2017-05-15T03:56:18.907Z,22.69
2017-05-15T03:56:44.483Z,22.67
2017-05-15T03:57:10.064Z,22.65
2017-05-15T03:57:35.634Z,22.74
2017-05-15T03:58:01.209Z,22.71
2017-05-15T03:58:26.781Z,22.68
2017-05-15T03:58:52.343Z,22.71
2017-05-15T03:59:17.906Z,22.8
2017-05-15T03:59:43.484Z,22.68
2017-05-15T04:00:09.043Z,22.62
2017-05-15T04:00:34.612Z,22.65
2017-05-15T04:01:00.213Z,22.69
2017-05-15T04:01:25.771Z,22.59
2017-05-15T04:01:51.413Z,22.75
2017-05-15T04:02:16.982Z,22.75
2017-05-15T04:02:42.561Z,22.68
2017-05-15T04:03:08.135Z,22.62
2017-05-15T04:03:33.726Z,22.69
2017-05-15T04:03:59.285Z,22.6
2017-05-15T04:04:24.845Z,22.69
2017-05-15T04:04:50.405Z,22.74
2017-05-15T04:05:15.983Z,22.65
2017-05-15T04:05:41.545Z,22.65
2017-05-15T04:06:07.115Z,22.62
2017-05-15T04:06:32.703Z,22.68
2017-05-15T04:06:58.299Z,22.71
2017-05-15T04:07:23.924Z,22.71
2017-05-15T04:07:49.504Z,22.74
2017-05-15T04:08:15.094Z,22.74
2017-05-15T04:08:40.663Z,22.57
2017-05-15T04:09:06.236Z,22.67
2017-05-15T04:09:31.812Z,22.71
2017-05-15T04:09:57.386Z,22.59
2017-05-15T04:10:22.991Z,22.69
2017-05-15T04:10:48.602Z,22.68
2017-05-15T04:11:14.167Z,22.59
2017-05-15T04:11:39.723Z,22.62
2017-05-15T04:12:05.284Z,22.62
2017-05-15T04:12:30.827Z,22.56
2017-05-15T04:12:56.380Z,22.53
2017-05-15T04:13:21.940Z,22.67
2017-05-15T04:13:47.505Z,22.56
2017-05-15T04:14:13.071Z,22.57
2017-05-15T04:14:38.655Z,22.69
2017-05-15T04:15:04.203Z,22.67
2017-05-15T04:15:29.769Z,22.67
2017-05-15T04:15:55.336Z,22.72
2017-05-15T04:16:20.891Z,22.59
2017-05-15T04:16:46.471Z,22.65
2017-05-15T04:17:12.042Z,22.67
2017-05-15T04:17:37.615Z,22.67
2017-05-15T04:18:03.251Z,22.59
2017-05-15T04:18:28.874Z,22.59
2017-05-15T04:18:54.443Z,22.67
2017-05-15T04:19:20.082Z,22.68
2017-05-15T04:19:45.649Z,22.69
2017-05-15T04:20:11.224Z,22.65
2017-05-15T04:20:36.785Z,22.6
2017-05-15T04:21:02.472Z,22.64
2017-05-15T04:21:28.074Z,22.65
2017-05-15T04:21:53.670Z,22.65
2017-05-15T04:22:19.204Z,22.6
2017-05-15T04:22:44.762Z,22.64
2017-05-15T04:23:10.343Z,22.64
2017-05-15T04:23:35.905Z,22.59
2017-05-15T04:24:01.483Z,22.6
2017-05-15T04:24:27.053Z,22.65
2017-05-15T04:24:52.654Z,22.67
2017-05-15T04:25:18.421Z,22.67
2017-05-15T04:25:44.094Z,22.69
2017-05-15T04:26:09.684Z,22.53
2017-05-15T04:26:35.319Z,22.64
2017-05-15T04:27:00.903Z,22.64
2017-05-15T04:27:26.460Z,22.57
2017-05-15T04:27:52.022Z,22.64
2017-05-15T04:28:17.614Z,22.67
2017-05-15T04:28:43.161Z,22.53
2017-05-15T04:29:08.738Z,22.62
2017-05-15T04:29:34.298Z,22.65
2017-05-15T04:29:59.866Z,22.72
2017-05-15T04:30:25.490Z,22.67
2017-05-15T04:30:51.061Z,22.6
2017-05-15T04:31:16.600Z,22.64
2017-05-15T04:31:42.305Z,22.59
2017-05-15T04:32:07.944Z,22.67
2017-05-15T04:32:33.914Z,22.62
2017-05-15T04:32:59.479Z,22.68
2017-05-15T04:33:25.164Z,22.67
2017-05-15T04:33:50.629Z,22.62
2017-05-15T04:34:16.191Z,22.6
2017-05-15T04:34:41.755Z,22.59
2017-05-15T04:35:07.298Z,22.62
2017-05-15T04:35:32.917Z,22.64
2017-05-15T04:35:58.489Z,22.6
2017-05-15T04:36:24.055Z,22.6
2017-05-15T04:36:49.818Z,22.57
2017-05-15T04:37:15.367Z,22.53
2017-05-15T04:37:40.931Z,22.52
2017-05-15T04:38:06.489Z,22.6
2017-05-15T04:38:32.212Z,22.6
2017-05-15T04:38:57.711Z,22.52
2017-05-15T04:39:23.375Z,22.67
2017-05-15T04:39:48.933Z,22.57
2017-05-15T04:40:14.491Z,22.56
2017-05-15T04:40:40.044Z,22.54
2017-05-15T04:41:05.602Z,22.52
2017-05-15T04:41:31.184Z,22.62
2017-05-15T04:41:56.744Z,22.65
2017-05-15T04:42:22.303Z,22.53
2017-05-15T04:42:47.861Z,22.6
2017-05-15T04:43:13.434Z,22.57
2017-05-15T04:43:39.005Z,22.64
2017-05-15T04:44:04.561Z,22.62
2017-05-15T04:44:30.135Z,22.6
2017-05-15T04:44:55.697Z,22.68
2017-05-15T04:45:21.259Z,22.65
2017-05-15T04:45:46.830Z,22.59
2017-05-15T04:46:12.397Z,22.59
2017-05-15T04:46:37.989Z,22.57
2017-05-15T04:47:37.442Z,22.64
2017-05-15T04:49:43.863Z,22.62
2017-05-15T04:50:09.504Z,22.65
2017-05-15T04:50:35.085Z,22.62
2017-05-15T04:51:00.656Z,22.53
2017-05-15T04:51:26.224Z,22.71
2017-05-15T04:51:51.924Z,22.67
2017-05-15T04:52:17.497Z,22.62
2017-05-15T04:52:43.081Z,22.65
2017-05-15T04:53:08.724Z,22.59
2017-05-15T04:53:34.304Z,22.59
2017-05-15T04:53:59.883Z,22.6
2017-05-15T04:54:25.511Z,22.65
2017-05-15T04:54:51.076Z,22.64
2017-05-15T04:55:44.382Z,22.59
2017-05-15T04:56:09.941Z,22.6
2017-05-15T04:58:17.083Z,22.57
2017-05-15T04:58:42.795Z,22.59
2017-05-15T04:59:08.370Z,22.53
2017-05-15T04:59:34.004Z,22.59
2017-05-15T04:59:59.571Z,22.67
2017-05-15T05:00:25.121Z,22.59
2017-05-15T05:00:51.314Z,22.57
2017-05-15T05:01:16.889Z,22.56
2017-05-15T05:01:42.449Z,22.64
2017-05-15T05:02:08.015Z,22.64
2017-05-15T05:02:33.693Z,22.6
2017-05-15T05:02:59.266Z,22.54
2017-05-15T05:03:24.844Z,22.56
2017-05-15T05:03:50.390Z,22.59
2017-05-15T05:04:15.986Z,22.65
2017-05-15T05:04:41.553Z,22.6
2017-05-15T05:05:07.134Z,22.59
2017-05-15T05:05:32.705Z,22.64
2017-05-15T05:05:58.273Z,22.65
2017-05-15T05:06:23.851Z,22.56
2017-05-15T05:06:49.424Z,22.6
2017-05-15T05:07:14.980Z,22.6
2017-05-15T05:07:40.535Z,22.6
2017-05-15T05:08:06.132Z,22.59
2017-05-15T05:08:31.692Z,22.6
2017-05-15T05:08:57.265Z,22.62
2017-05-15T05:09:22.820Z,22.69
2017-05-15T05:09:48.381Z,22.59
2017-05-15T05:10:13.941Z,22.56
2017-05-15T05:10:39.483Z,22.67
2017-05-15T05:11:05.172Z,22.57
2017-05-15T05:11:30.749Z,22.59
2017-05-15T05:11:56.313Z,22.6
2017-05-15T05:12:21.873Z,22.57
2017-05-15T05:13:30.553Z,22.65
2017-05-15T05:13:56.112Z,22.67
2017-05-15T05:14:21.764Z,22.64
2017-05-15T05:14:47.334Z,22.6
2017-05-15T05:15:12.896Z,22.65
2017-05-15T05:15:38.458Z,22.59
2017-05-15T05:16:04.143Z,22.49
2017-05-15T05:16:29.700Z,22.49
2017-05-15T05:16:55.370Z,22.6
2017-05-15T05:17:20.943Z,22.6
2017-05-15T05:17:46.505Z,22.6
2017-05-15T05:18:12.154Z,22.62
2017-05-15T05:18:37.742Z,22.6
2017-05-15T05:19:03.334Z,22.67
2017-05-15T05:19:28.958Z,22.62
2017-05-15T05:19:54.519Z,22.53
2017-05-15T05:20:20.086Z,22.62
2017-05-15T05:20:45.659Z,22.6
2017-05-15T05:21:11.283Z,22.67
2017-05-15T05:21:36.865Z,22.59
2017-05-15T05:22:02.434Z,22.5
2017-05-15T05:22:28.012Z,22.56
2017-05-15T05:22:53.583Z,22.59
2017-05-15T05:23:19.132Z,22.59
2017-05-15T05:23:44.783Z,22.64
2017-05-15T05:24:10.345Z,22.6
2017-05-15T05:24:35.910Z,22.67
2017-05-15T05:25:01.470Z,22.59
2017-05-15T05:25:27.170Z,22.64
2017-05-15T05:25:52.735Z,22.62
2017-05-15T05:26:18.307Z,22.64
2017-05-15T05:26:43.985Z,22.54
2017-05-15T05:27:09.544Z,22.59
2017-05-15T05:27:35.107Z,22.56
2017-05-15T05:28:00.742Z,22.6
2017-05-15T05:28:26.304Z,22.6
2017-05-15T05:28:51.865Z,22.62
2017-05-15T05:29:17.431Z,22.56
2017-05-15T05:29:43.151Z,22.53
2017-05-15T05:30:08.707Z,22.62
2017-05-15T05:30:34.459Z,22.64
2017-05-15T05:31:00.063Z,22.54
2017-05-15T05:31:25.635Z,22.57
2017-05-15T05:31:51.207Z,22.62
2017-05-15T05:32:16.775Z,22.62
2017-05-15T05:32:42.331Z,22.64
2017-05-15T05:33:07.903Z,22.53
2017-05-15T05:33:33.573Z,22.53
2017-05-15T05:33:59.165Z,22.6
2017-05-15T05:34:24.743Z,22.52
2017-05-15T05:34:50.318Z,22.54
2017-05-15T05:35:15.882Z,22.56
2017-05-15T05:35:41.440Z,22.52
2017-05-15T05:36:06.994Z,22.52
2017-05-15T05:36:32.555Z,22.52
2017-05-15T05:36:58.119Z,22.49
2017-05-15T05:37:23.765Z,22.52
2017-05-15T05:37:49.344Z,22.5
2017-05-15T05:38:14.892Z,22.6
2017-05-15T05:38:40.464Z,22.5
2017-05-15T05:39:06.025Z,22.57
2017-05-15T05:39:31.581Z,22.59
2017-05-15T05:39:57.144Z,22.56
2017-05-15T05:40:22.705Z,22.59
2017-05-15T05:40:48.262Z,22.52
2017-05-15T05:41:13.841Z,22.54
2017-05-15T05:41:39.403Z,22.59
2017-05-15T05:42:04.992Z,22.57
2017-05-15T05:42:30.664Z,22.54
2017-05-15T05:42:56.250Z,22.62
2017-05-15T05:43:21.815Z,22.53
2017-05-15T05:43:47.362Z,22.54
2017-05-15T05:44:12.924Z,22.53
2017-05-15T05:44:38.483Z,22.54
2017-05-15T05:45:04.052Z,22.53
2017-05-15T05:45:29.630Z,22.56
2017-05-15T05:45:55.193Z,22.56
2017-05-15T05:46:20.750Z,22.49
2017-05-15T05:46:46.308Z,22.54
2017-05-15T05:47:11.851Z,22.52
2017-05-15T05:47:37.411Z,22.43
2017-05-15T05:48:02.951Z,22.54
2017-05-15T05:48:28.515Z,22.57
2017-05-15T05:48:54.074Z,22.59
2017-05-15T05:49:19.631Z,22.56
2017-05-15T05:49:45.171Z,22.53
2017-05-15T05:50:10.761Z,22.53
2017-05-15T05:50:36.306Z,22.52
2017-05-15T05:51:01.901Z,22.56
2017-05-15T05:51:27.429Z,22.56
2017-05-15T05:51:52.984Z,22.57
2017-05-15T05:52:18.544Z,22.52
2017-05-15T05:52:44.113Z,22.56
2017-05-15T05:53:09.700Z,22.56
2017-05-15T05:53:35.245Z,22.52
2017-05-15T05:54:00.787Z,22.5
2017-05-15T05:54:26.333Z,22.56
2017-05-15T05:54:51.886Z,22.53
2017-05-15T05:55:17.450Z,22.53
2017-05-15T05:55:43.004Z,22.57
2017-05-15T05:56:08.558Z,22.56
2017-05-15T05:56:34.124Z,22.56
2017-05-15T05:56:59.696Z,22.49
2017-05-15T05:57:25.275Z,22.54
2017-05-15T05:57:50.884Z,22.56
2017-05-15T05:58:16.449Z,22.53
2017-05-15T05:58:42.013Z,22.56
2017-05-15T05:59:07.738Z,22.53
2017-05-15T05:59:33.309Z,22.5
2017-05-15T05:59:58.867Z,22.53
2017-05-15T06:00:24.494Z,22.53
2017-05-15T06:01:28.068Z,22.59
2017-05-15T06:01:53.622Z,22.56
2017-05-15T06:02:19.332Z,22.53
2017-05-15T06:02:44.885Z,22.5
2017-05-15T06:03:10.453Z,22.54
2017-05-15T06:03:36.030Z,22.54
2017-05-15T06:04:01.594Z,22.5
2017-05-15T06:04:27.169Z,22.52
2017-05-15T06:04:52.753Z,22.49
2017-05-15T06:05:18.332Z,22.57
2017-05-15T06:05:43.871Z,22.56
2017-05-15T06:06:36.003Z,22.59
2017-05-15T06:07:01.560Z,22.52
2017-05-15T06:07:27.121Z,22.47
2017-05-15T06:09:34.388Z,22.52
2017-05-15T06:09:59.952Z,22.56
2017-05-15T06:10:58.022Z,22.53
2017-05-15T06:11:23.586Z,22.52
2017-05-15T06:11:49.163Z,22.56
2017-05-15T06:12:14.713Z,22.52
2017-05-15T06:12:40.267Z,22.53
2017-05-15T06:13:05.863Z,22.44
2017-05-15T06:13:31.414Z,22.52
2017-05-15T06:13:57.002Z,22.52
2017-05-15T06:14:22.570Z,22.52
2017-05-15T06:14:48.126Z,22.53
2017-05-15T06:15:13.686Z,22.53
2017-05-15T06:15:39.250Z,22.5
2017-05-15T06:16:04.799Z,22.53
2017-05-15T06:16:30.352Z,22.52
2017-05-15T06:16:55.904Z,22.54
2017-05-15T06:17:21.451Z,22.46
2017-05-15T06:17:47.065Z,22.54
2017-05-15T06:18:12.635Z,22.54
2017-05-15T06:18:38.259Z,22.49
2017-05-15T06:19:03.823Z,22.46
2017-05-15T06:19:29.382Z,22.47
2017-05-15T06:19:54.940Z,22.49
2017-05-15T06:20:20.480Z,22.52
2017-05-15T06:20:46.068Z,22.49
2017-05-15T06:21:11.693Z,22.47
2017-05-15T06:21:37.264Z,22.44
2017-05-15T06:22:02.827Z,22.47
2017-05-15T06:22:28.396Z,22.47
2017-05-15T06:22:53.963Z,22.47
2017-05-15T06:23:19.534Z,22.52
2017-05-15T06:23:45.095Z,22.47
2017-05-15T06:24:10.673Z,22.41
2017-05-15T06:24:36.253Z,22.44
2017-05-15T06:25:01.875Z,22.49
2017-05-15T06:25:27.450Z,22.49
2017-05-15T06:25:53.064Z,22.43
2017-05-15T06:26:18.653Z,22.43
2017-05-15T06:26:44.207Z,22.49
2017-05-15T06:27:09.760Z,22.46
2017-05-15T06:27:35.343Z,22.46
2017-05-15T06:28:00.902Z,22.52
2017-05-15T06:28:26.468Z,22.47
2017-05-15T06:28:52.023Z,22.43
2017-05-15T06:29:17.582Z,22.49
2017-05-15T06:29:43.161Z,22.52
2017-05-15T06:30:08.714Z,22.43
2017-05-15T06:30:34.271Z,22.43
2017-05-15T06:30:59.835Z,22.47
2017-05-15T06:31:25.384Z,22.52
2017-05-15T06:31:50.964Z,22.49
2017-05-15T06:32:16.535Z,22.44
2017-05-15T06:32:42.111Z,22.49
2017-05-15T06:33:07.665Z,22.53
2017-05-15T06:33:33.225Z,22.44
2017-05-15T06:33:58.784Z,22.44
2017-05-15T06:34:24.355Z,22.47
2017-05-15T06:34:49.927Z,22.44
2017-05-15T06:35:15.479Z,22.5
2017-05-15T06:35:41.055Z,22.49
2017-05-15T06:36:06.775Z,22.47
2017-05-15T06:36:32.371Z,22.5
2017-05-15T06:36:57.944Z,22.41
2017-05-15T06:37:23.541Z,22.5
2017-05-15T06:37:49.088Z,22.47
2017-05-15T06:38:14.663Z,22.47
2017-05-15T06:38:40.274Z,22.52
2017-05-15T06:39:05.967Z,22.47
2017-05-15T06:39:31.505Z,22.49
2017-05-15T06:39:57.085Z,22.46
2017-05-15T06:40:22.654Z,22.49
2017-05-15T06:40:48.215Z,22.49
2017-05-15T06:41:13.756Z,22.44
2017-05-15T06:41:39.331Z,22.5
2017-05-15T06:42:04.894Z,22.52
2017-05-15T06:42:30.519Z,22.49
2017-05-15T06:42:56.176Z,22.46
2017-05-15T06:43:21.763Z,22.47
2017-05-15T06:43:47.340Z,22.47
2017-05-15T06:44:12.955Z,22.46
2017-05-15T06:44:38.520Z,22.53
2017-05-15T06:45:04.084Z,22.47
2017-05-15T06:45:29.638Z,22.47
2017-05-15T06:45:55.284Z,22.47
2017-05-15T06:46:20.839Z,22.46
2017-05-15T06:46:46.579Z,22.47
2017-05-15T06:47:12.174Z,22.52
2017-05-15T06:47:37.722Z,22.44
2017-05-15T06:48:03.295Z,22.53
2017-05-15T06:48:28.993Z,22.43
2017-05-15T06:48:54.574Z,22.49
2017-05-15T06:49:20.139Z,22.43
2017-05-15T06:49:45.701Z,22.54
2017-05-15T06:50:11.341Z,22.54
2017-05-15T06:50:36.904Z,22.54
2017-05-15T06:51:02.590Z,22.46
2017-05-15T06:51:28.184Z,22.52
2017-05-15T06:51:53.761Z,22.47
2017-05-15T06:52:19.330Z,22.47
2017-05-15T06:52:44.890Z,22.53
2017-05-15T06:53:10.438Z,22.39
2017-05-15T06:53:35.995Z,22.47
2017-05-15T06:54:01.558Z,22.53
2017-05-15T06:54:27.114Z,22.5
2017-05-15T06:54:52.665Z,22.54
2017-05-15T06:55:18.337Z,22.5
2017-05-15T06:55:43.903Z,22.46
2017-05-15T06:56:09.462Z,22.53
2017-05-15T06:56:35.045Z,22.5
2017-05-15T06:57:00.596Z,22.52
2017-05-15T06:57:26.183Z,22.56
2017-05-15T06:57:51.744Z,22.53
2017-05-15T06:58:17.302Z,22.56
2017-05-15T06:58:42.911Z,22.56
2017-05-15T06:59:08.492Z,22.47
2017-05-15T06:59:34.055Z,22.52
2017-05-15T06:59:59.615Z,22.53
2017-05-15T07:00:25.175Z,22.54
2017-05-15T07:00:50.821Z,22.56
2017-05-15T07:01:16.369Z,22.53
2017-05-15T07:01:41.997Z,22.53
2017-05-15T07:02:07.555Z,22.54
2017-05-15T07:02:33.127Z,22.54
2017-05-15T07:02:58.671Z,22.52
2017-05-15T07:03:24.221Z,22.52
2017-05-15T07:03:49.785Z,22.52
2017-05-15T07:04:15.338Z,22.49
2017-05-15T07:04:40.897Z,22.52
2017-05-15T07:05:06.452Z,22.5
2017-05-15T07:05:32.033Z,22.53
2017-05-15T07:05:57.656Z,22.54
2017-05-15T07:06:23.258Z,22.53
2017-05-15T07:06:48.847Z,22.57
2017-05-15T07:07:14.384Z,22.43
2017-05-15T07:07:39.964Z,22.49
2017-05-15T07:08:05.523Z,22.54
2017-05-15T07:08:31.090Z,22.47
2017-05-15T07:08:56.713Z,22.56
2017-05-15T07:09:22.281Z,22.47
2017-05-15T07:09:47.861Z,22.54
2017-05-15T07:10:13.433Z,22.46
2017-05-15T07:10:39.013Z,22.52
2017-05-15T07:11:04.576Z,22.49
2017-05-15T07:11:30.140Z,22.49
2017-05-15T07:11:55.709Z,22.54
2017-05-15T07:12:21.264Z,22.49
2017-05-15T07:12:46.845Z,22.52
2017-05-15T07:13:12.485Z,22.49
2017-05-15T07:13:38.042Z,22.54
2017-05-15T07:14:03.623Z,22.46
2017-05-15T07:14:29.177Z,22.49
2017-05-15T07:14:54.774Z,22.52
2017-05-15T07:15:20.328Z,22.47
2017-05-15T07:15:45.903Z,22.5
2017-05-15T07:16:11.478Z,22.5
2017-05-15T07:16:37.076Z,22.49
2017-05-15T07:17:02.641Z,22.41
2017-05-15T07:17:28.216Z,22.52
2017-05-15T07:17:53.856Z,22.46
2017-05-15T07:18:19.420Z,22.52
2017-05-15T07:18:44.964Z,22.56
2017-05-15T07:19:10.520Z,22.47
2017-05-15T07:19:36.087Z,22.5
2017-05-15T07:20:01.675Z,22.54
2017-05-15T07:20:27.241Z,22.56
2017-05-15T07:20:52.794Z,22.49
2017-05-15T07:21:18.354Z,22.52
2017-05-15T07:21:43.954Z,22.52
2017-05-15T07:22:09.498Z,22.5
2017-05-15T07:22:35.150Z,22.46
2017-05-15T07:23:00.701Z,22.46
2017-05-15T07:23:26.256Z,22.56
2017-05-15T07:23:51.903Z,22.46
2017-05-15T07:24:17.461Z,22.46
2017-05-15T07:24:43.017Z,22.54
2017-05-15T07:25:08.583Z,22.43
2017-05-15T07:25:34.234Z,22.44
2017-05-15T07:25:59.797Z,22.54
2017-05-15T07:26:25.354Z,22.44
2017-05-15T07:26:50.907Z,22.49
2017-05-15T07:27:16.484Z,22.5
2017-05-15T07:27:42.065Z,22.41
2017-05-15T07:28:07.645Z,22.5
2017-05-15T07:28:33.222Z,22.47
2017-05-15T07:28:58.796Z,22.53
2017-05-15T07:29:24.352Z,22.53
2017-05-15T07:29:49.973Z,22.41
2017-05-15T07:30:15.503Z,22.5
2017-05-15T07:30:41.053Z,22.5
2017-05-15T07:31:06.620Z,22.46
2017-05-15T07:31:32.192Z,22.47
2017-05-15T07:31:57.753Z,22.46
2017-05-15T07:32:23.312Z,22.54
2017-05-15T07:32:48.864Z,22.49
2017-05-15T07:33:14.434Z,22.5
2017-05-15T07:33:40.098Z,22.49
2017-05-15T07:34:05.649Z,22.49
2017-05-15T07:34:31.205Z,22.47
2017-05-15T07:34:56.868Z,22.46
2017-05-15T07:35:22.520Z,22.5
2017-05-15T07:35:48.085Z,22.47
2017-05-15T07:36:13.660Z,22.5
2017-05-15T07:36:39.238Z,22.43
2017-05-15T07:37:04.804Z,22.5
2017-05-15T07:37:30.361Z,22.46
2017-05-15T07:37:55.920Z,22.43
2017-05-15T07:38:21.493Z,22.46
2017-05-15T07:38:47.052Z,22.47
2017-05-15T07:39:12.643Z,22.49
2017-05-15T07:39:38.201Z,22.49
2017-05-15T07:40:03.808Z,22.54
2017-05-15T07:40:29.401Z,22.43
2017-05-15T07:40:54.953Z,22.43
2017-05-15T07:41:20.696Z,22.47
2017-05-15T07:41:46.266Z,22.46
2017-05-15T07:42:11.834Z,22.44
2017-05-15T07:42:37.391Z,22.41
2017-05-15T07:43:02.954Z,22.47
2017-05-15T07:43:28.510Z,22.49
2017-05-15T07:43:54.041Z,22.44
2017-05-15T07:44:19.604Z,22.46
2017-05-15T07:44:45.161Z,22.43
2017-05-15T07:45:10.823Z,22.43
2017-05-15T07:45:36.381Z,22.47
2017-05-15T07:46:01.943Z,22.46
2017-05-15T07:46:27.713Z,22.44
2017-05-15T07:46:53.269Z,22.43
2017-05-15T07:47:18.829Z,22.43
2017-05-15T07:47:44.427Z,22.47
2017-05-15T07:48:10.041Z,22.49
2017-05-15T07:48:35.651Z,22.44
2017-05-15T07:49:01.219Z,22.49
2017-05-15T07:49:26.788Z,22.37
2017-05-15T07:49:52.369Z,22.47
2017-05-15T07:50:17.929Z,22.44
2017-05-15T07:50:43.519Z,22.49
2017-05-15T07:51:09.100Z,22.46
2017-05-15T07:51:34.692Z,22.43
2017-05-15T07:52:00.248Z,22.43
2017-05-15T07:52:25.822Z,22.5
2017-05-15T07:52:51.393Z,22.46
2017-05-15T07:53:16.958Z,22.47
2017-05-15T07:53:42.523Z,22.41
2017-05-15T07:54:08.074Z,22.46
2017-05-15T07:54:33.627Z,22.39
2017-05-15T07:54:59.181Z,22.47
2017-05-15T07:55:24.763Z,22.44
2017-05-15T07:55:50.423Z,22.37
2017-05-15T07:56:15.994Z,22.35
2017-05-15T07:56:41.548Z,22.41
2017-05-15T07:57:07.122Z,22.46
2017-05-15T07:57:32.693Z,22.39
2017-05-15T07:57:58.291Z,22.37
2017-05-15T07:58:23.871Z,22.37
2017-05-15T07:58:49.433Z,22.39
2017-05-15T07:59:14.991Z,22.38
2017-05-15T07:59:40.553Z,22.41
2017-05-15T08:00:06.126Z,22.39
2017-05-15T08:00:31.792Z,22.46
2017-05-15T08:00:57.433Z,22.41
2017-05-15T08:01:23.036Z,22.43
2017-05-15T08:01:48.679Z,22.41
2017-05-15T08:02:14.206Z,22.44
2017-05-15T08:02:39.768Z,22.38
2017-05-15T08:03:43.261Z,22.47
2017-05-15T08:04:08.843Z,22.44
2017-05-15T08:04:34.418Z,22.47
2017-05-15T08:05:00.000Z,22.39
2017-05-15T08:05:25.561Z,22.35
2017-05-15T08:05:51.099Z,22.39
2017-05-15T08:06:16.641Z,22.34
2017-05-15T08:06:42.181Z,22.46
2017-05-15T08:07:07.761Z,22.39
2017-05-15T08:07:33.313Z,22.38
2017-05-15T08:07:58.873Z,22.43
2017-05-15T08:08:24.451Z,22.38
2017-05-15T08:08:50.134Z,22.39
2017-05-15T08:09:15.713Z,22.43
2017-05-15T08:09:41.264Z,22.37
2017-05-15T08:10:39.694Z,22.38
2017-05-15T08:11:05.250Z,22.38
2017-05-15T08:11:30.813Z,22.41
2017-05-15T08:11:56.387Z,22.34
2017-05-15T08:12:22.083Z,22.41
2017-05-15T08:12:47.630Z,22.37
2017-05-15T08:13:13.252Z,22.43
2017-05-15T08:13:38.822Z,22.44
2017-05-15T08:14:04.402Z,22.41
2017-05-15T08:14:29.984Z,22.38
2017-05-15T08:14:55.542Z,22.43
2017-05-15T08:15:21.108Z,22.35
2017-05-15T08:15:46.818Z,22.39
2017-05-15T08:16:12.391Z,22.37
2017-05-15T08:16:37.957Z,22.38
2017-05-15T08:17:03.680Z,22.38
2017-05-15T08:17:29.288Z,22.38
2017-05-15T08:17:54.856Z,22.43
2017-05-15T08:18:20.411Z,22.35
2017-05-15T08:18:45.965Z,22.41
2017-05-15T08:19:11.528Z,22.34
2017-05-15T08:19:37.090Z,22.41
2017-05-15T08:20:02.644Z,22.43
2017-05-15T08:20:28.205Z,22.38
2017-05-15T08:20:53.873Z,22.38
2017-05-15T08:21:19.417Z,22.39
2017-05-15T08:21:44.972Z,22.38
2017-05-15T08:22:10.553Z,22.43
2017-05-15T08:22:36.142Z,22.34
2017-05-15T08:23:01.690Z,22.41
2017-05-15T08:23:27.290Z,22.37
2017-05-15T08:23:52.871Z,22.32
2017-05-15T08:24:18.452Z,22.41
2017-05-15T08:24:44.028Z,22.43
2017-05-15T08:25:09.591Z,22.37
2017-05-15T08:25:35.152Z,22.35
2017-05-15T08:26:00.813Z,22.34
2017-05-15T08:26:26.372Z,22.39
2017-05-15T08:26:51.941Z,22.43
2017-05-15T08:27:17.604Z,22.39
2017-05-15T08:27:43.185Z,22.41
2017-05-15T08:28:08.745Z,22.44
2017-05-15T08:28:34.311Z,22.39
2017-05-15T08:28:59.985Z,22.32
2017-05-15T08:29:25.543Z,22.38
2017-05-15T08:29:51.102Z,22.34
2017-05-15T08:30:16.694Z,22.39
2017-05-15T08:30:42.285Z,22.37
2017-05-15T08:31:07.917Z,22.37
2017-05-15T08:31:33.610Z,22.38
2017-05-15T08:31:59.202Z,22.35
2017-05-15T08:32:24.752Z,22.37
2017-05-15T08:33:33.233Z,22.38
2017-05-15T08:33:58.791Z,22.39
2017-05-15T08:34:24.361Z,22.35
2017-05-15T08:34:49.924Z,22.37
2017-05-15T08:35:15.456Z,22.39
2017-05-15T08:35:41.084Z,22.43
2017-05-15T08:36:06.648Z,22.39
2017-05-15T08:36:32.159Z,22.35
2017-05-15T08:36:57.693Z,22.43
2017-05-15T08:37:23.251Z,22.37
2017-05-15T08:37:48.801Z,22.41
2017-05-15T08:38:14.351Z,22.34
2017-05-15T08:38:39.897Z,22.41
2017-05-15T08:39:05.442Z,22.39
2017-05-15T08:39:31.011Z,22.38
2017-05-15T08:39:56.625Z,22.38
2017-05-15T08:40:22.190Z,22.38
2017-05-15T08:40:47.787Z,22.35
2017-05-15T08:41:13.423Z,22.38